This is the latest recevied weather packets stored in our database for station/object RUSSARO. If no packets are shown the sender has not sent any weather packets the latest 10 day(s).
| Time | Temp. | Humidity | Pressure | Rain* | Wind** | Luminosity | Snow |
|---|---|---|---|---|---|---|---|
| 1778197651 | 5° C | 66% | 1022 hPa | 0 mm | - | - | - |
| 1778196450 | 5.56° C | 64% | 1021.7 hPa | 0 mm | - | - | - |
| 1778195251 | 5.56° C | 63% | 1021.5 hPa | 0 mm | - | - | - |
| 1778194049 | 5.56° C | 60% | 1021.2 hPa | 0 mm | - | - | - |
| 1778192851 | 6.11° C | 60% | 1021.1 hPa | 0 mm | - | - | - |
| 1778191650 | 6.67° C | 56% | 1020.9 hPa | 0 mm | - | - | - |
| 1778190450 | 6.67° C | 53% | 1020.6 hPa | 0 mm | - | - | - |
| 1778189249 | 7.22° C | 51% | 1020.3 hPa | 0 mm | - | - | - |
| 1778186851 | 7.22° C | 51% | 1019.7 hPa | 0 mm | - | - | - |
| 1778185650 | 7.22° C | 55% | 1019.5 hPa | 0 mm | - | - | - |
| 1778184451 | 7.78° C | 49% | 1019.3 hPa | 0 mm | - | - | - |
| 1778183249 | 8.33° C | 46% | 1019 hPa | 0 mm | - | - | - |
| 1778182049 | 8.33° C | 50% | 1018.6 hPa | 0 mm | - | - | - |
| 1778180849 | 8.33° C | 51% | 1018.3 hPa | 0 mm | - | - | - |
| 1778179649 | 8.33° C | 53% | 1018.1 hPa | 0 mm | - | - | - |
| 1778178448 | 8.33° C | 51% | 1017.9 hPa | 0 mm | - | - | - |
| 1778177248 | 8.33° C | 52% | 1017.7 hPa | 0 mm | - | - | - |
| 1778176049 | 8.89° C | 44% | 1017.6 hPa | 0 mm | - | - | - |
| 1778174848 | 9.44° C | 43% | 1017.5 hPa | 0 mm | - | - | - |
| 1778173648 | 9.44° C | 45% | 1017.4 hPa | 0 mm | - | - | - |
| 1778172449 | 8.89° C | 57% | 1017.4 hPa | 0 mm | - | - | - |
| 1778171249 | 8.33° C | 65% | 1017.2 hPa | 0 mm | - | - | - |
| 1778170049 | 8.89° C | 63% | 1017.2 hPa | 0 mm | - | - | - |
| 1778168848 | 9.44° C | 59% | 1017 hPa | 0 mm | - | - | - |
| 1778167648 | 9.44° C | 59% | 1017.1 hPa | 0 mm | - | - | - |
* Rain latest hour (hover to see other rain measurements)
** Current wind speed in m/s (hover to see current wind gust speed)